sensor_id;sensor_type;location;lat;lon;timestamp;P1;durP1;ratioP1;P2;durP2;ratioP2
33810;SDS011;20119;48.334;16.206;2024-02-21T00:02:19;13.45;;;6.00;;
33810;SDS011;20119;48.334;16.206;2024-02-21T00:09:58;13.30;;;6.05;;
33810;SDS011;20119;48.334;16.206;2024-02-21T00:12:25;12.20;;;5.88;;
33810;SDS011;20119;48.334;16.206;2024-02-21T00:14:52;11.38;;;5.75;;
33810;SDS011;20119;48.334;16.206;2024-02-21T00:17:19;12.40;;;5.38;;
33810;SDS011;20119;48.334;16.206;2024-02-21T00:19:46;11.23;;;5.47;;
33810;SDS011;20119;48.334;16.206;2024-02-21T00:24:49;8.98;;;5.07;;
33810;SDS011;20119;48.334;16.206;2024-02-21T00:27:17;14.20;;;5.68;;
33810;SDS011;20119;48.334;16.206;2024-02-21T00:29:44;13.10;;;5.30;;
33810;SDS011;20119;48.334;16.206;2024-02-21T00:32:11;12.45;;;5.18;;
33810;SDS011;20119;48.334;16.206;2024-02-21T00:34:38;13.70;;;5.40;;
33810;SDS011;20119;48.334;16.206;2024-02-21T00:37:06;14.90;;;5.50;;
33810;SDS011;20119;48.334;16.206;2024-02-21T00:39:33;11.70;;;5.78;;
33810;SDS011;20119;48.334;16.206;2024-02-21T00:42:00;11.32;;;6.15;;
33810;SDS011;20119;48.334;16.206;2024-02-21T00:44:29;13.20;;;5.70;;
33810;SDS011;20119;48.334;16.206;2024-02-21T00:46:56;11.43;;;5.38;;
33810;SDS011;20119;48.334;16.206;2024-02-21T00:49:23;14.23;;;5.60;;
33810;SDS011;20119;48.334;16.206;2024-02-21T00:51:50;12.35;;;5.38;;
33810;SDS011;20119;48.334;16.206;2024-02-21T00:54:17;12.15;;;5.50;;
33810;SDS011;20119;48.334;16.206;2024-02-21T00:56:44;11.82;;;5.70;;
33810;SDS011;20119;48.334;16.206;2024-02-21T00:59:11;15.27;;;5.63;;
33810;SDS011;20119;48.334;16.206;2024-02-21T01:01:40;10.80;;;5.30;;
33810;SDS011;20119;48.334;16.206;2024-02-21T01:04:07;13.95;;;6.13;;
33810;SDS011;20119;48.334;16.206;2024-02-21T01:06:35;10.48;;;5.53;;
33810;SDS011;20119;48.334;16.206;2024-02-21T01:09:02;14.25;;;5.90;;
33810;SDS011;20119;48.334;16.206;2024-02-21T01:11:29;11.73;;;5.18;;
33810;SDS011;20119;48.334;16.206;2024-02-21T01:13:56;13.93;;;5.90;;
33810;SDS011;20119;48.334;16.206;2024-02-21T01:16:23;14.10;;;5.57;;
33810;SDS011;20119;48.334;16.206;2024-02-21T01:18:52;13.77;;;5.90;;
33810;SDS011;20119;48.334;16.206;2024-02-21T01:21:19;13.63;;;5.90;;
33810;SDS011;20119;48.334;16.206;2024-02-21T01:23:46;13.02;;;5.93;;
33810;SDS011;20119;48.334;16.206;2024-02-21T01:26:13;12.32;;;5.72;;
33810;SDS011;20119;48.334;16.206;2024-02-21T01:28:40;12.80;;;5.65;;
33810;SDS011;20119;48.334;16.206;2024-02-21T01:31:08;12.50;;;5.50;;
33810;SDS011;20119;48.334;16.206;2024-02-21T01:33:35;11.68;;;5.38;;
33810;SDS011;20119;48.334;16.206;2024-02-21T01:36:05;15.52;;;5.82;;
33810;SDS011;20119;48.334;16.206;2024-02-21T01:41:08;13.40;;;5.75;;
33810;SDS011;20119;48.334;16.206;2024-02-21T01:46:10;13.00;;;5.63;;
33810;SDS011;20119;48.334;16.206;2024-02-21T01:48:38;12.98;;;5.95;;
33810;SDS011;20119;48.334;16.206;2024-02-21T01:51:06;10.73;;;5.75;;
33810;SDS011;20119;48.334;16.206;2024-02-21T01:53:35;15.25;;;6.07;;
33810;SDS011;20119;48.334;16.206;2024-02-21T01:56:06;12.02;;;5.82;;
33810;SDS011;20119;48.334;16.206;2024-02-21T01:58:35;15.35;;;5.47;;
33810;SDS011;20119;48.334;16.206;2024-02-21T02:01:03;13.77;;;5.45;;
33810;SDS011;20119;48.334;16.206;2024-02-21T02:03:30;11.88;;;5.05;;
33810;SDS011;20119;48.334;16.206;2024-02-21T02:11:12;14.23;;;5.55;;
33810;SDS011;20119;48.334;16.206;2024-02-21T02:13:40;14.50;;;5.50;;
33810;SDS011;20119;48.334;16.206;2024-02-21T02:16:07;11.90;;;5.70;;
33810;SDS011;20119;48.334;16.206;2024-02-21T02:18:34;16.15;;;5.70;;
33810;SDS011;20119;48.334;16.206;2024-02-21T02:21:01;11.35;;;5.78;;
33810;SDS011;20119;48.334;16.206;2024-02-21T02:23:32;14.57;;;5.38;;
33810;SDS011;20119;48.334;16.206;2024-02-21T02:26:00;15.30;;;5.57;;
33810;SDS011;20119;48.334;16.206;2024-02-21T02:28:27;16.10;;;5.45;;
33810;SDS011;20119;48.334;16.206;2024-02-21T02:30:54;12.90;;;5.35;;
33810;SDS011;20119;48.334;16.206;2024-02-21T02:33:21;15.05;;;5.80;;
33810;SDS011;20119;48.334;16.206;2024-02-21T02:53:56;14.07;;;5.40;;
33810;SDS011;20119;48.334;16.206;2024-02-21T02:56:23;11.70;;;5.55;;
33810;SDS011;20119;48.334;16.206;2024-02-21T02:58:50;16.17;;;6.13;;
33810;SDS011;20119;48.334;16.206;2024-02-21T03:01:17;13.15;;;5.22;;
33810;SDS011;20119;48.334;16.206;2024-02-21T03:03:44;15.57;;;5.90;;
33810;SDS011;20119;48.334;16.206;2024-02-21T03:06:12;13.93;;;6.05;;
33810;SDS011;20119;48.334;16.206;2024-02-21T03:13:52;15.32;;;6.45;;
33810;SDS011;20119;48.334;16.206;2024-02-21T03:16:19;13.50;;;5.50;;
33810;SDS011;20119;48.334;16.206;2024-02-21T03:21:21;14.50;;;6.07;;
33810;SDS011;20119;48.334;16.206;2024-02-21T03:23:48;15.18;;;6.32;;
33810;SDS011;20119;48.334;16.206;2024-02-21T03:26:15;13.85;;;6.18;;
33810;SDS011;20119;48.334;16.206;2024-02-21T03:28:42;14.00;;;5.93;;
33810;SDS011;20119;48.334;16.206;2024-02-21T03:54:31;15.10;;;6.65;;
33810;SDS011;20119;48.334;16.206;2024-02-21T03:56:58;14.48;;;6.07;;
33810;SDS011;20119;48.334;16.206;2024-02-21T03:59:25;13.73;;;5.93;;
33810;SDS011;20119;48.334;16.206;2024-02-21T04:01:52;13.25;;;5.45;;
33810;SDS011;20119;48.334;16.206;2024-02-21T04:04:20;14.60;;;5.93;;
33810;SDS011;20119;48.334;16.206;2024-02-21T04:06:47;13.73;;;6.25;;
33810;SDS011;20119;48.334;16.206;2024-02-21T04:09:14;11.48;;;5.38;;
33810;SDS011;20119;48.334;16.206;2024-02-21T04:11:42;16.67;;;5.55;;
33810;SDS011;20119;48.334;16.206;2024-02-21T04:16:45;13.82;;;5.65;;
33810;SDS011;20119;48.334;16.206;2024-02-21T04:19:12;11.00;;;5.47;;
33810;SDS011;20119;48.334;16.206;2024-02-21T04:21:39;14.55;;;5.90;;
33810;SDS011;20119;48.334;16.206;2024-02-21T04:24:06;13.55;;;5.65;;
33810;SDS011;20119;48.334;16.206;2024-02-21T04:26:33;13.13;;;5.78;;
33810;SDS011;20119;48.334;16.206;2024-02-21T04:29:02;14.00;;;5.80;;
33810;SDS011;20119;48.334;16.206;2024-02-21T04:31:29;12.10;;;5.68;;
33810;SDS011;20119;48.334;16.206;2024-02-21T04:33:58;14.88;;;6.70;;
33810;SDS011;20119;48.334;16.206;2024-02-21T04:36:25;14.18;;;6.30;;
33810;SDS011;20119;48.334;16.206;2024-02-21T04:38:52;14.43;;;6.22;;
33810;SDS011;20119;48.334;16.206;2024-02-21T04:41:19;13.25;;;6.40;;
33810;SDS011;20119;48.334;16.206;2024-02-21T04:43:46;12.20;;;6.30;;
33810;SDS011;20119;48.334;16.206;2024-02-21T04:46:15;13.13;;;6.22;;
33810;SDS011;20119;48.334;16.206;2024-02-21T04:48:42;14.13;;;6.30;;
33810;SDS011;20119;48.334;16.206;2024-02-21T04:51:09;16.50;;;6.38;;
33810;SDS011;20119;48.334;16.206;2024-02-21T04:53:37;13.93;;;5.93;;
33810;SDS011;20119;48.334;16.206;2024-02-21T05:06:41;16.67;;;6.43;;
33810;SDS011;20119;48.334;16.206;2024-02-21T05:09:09;15.25;;;6.00;;
33810;SDS011;20119;48.334;16.206;2024-02-21T05:11:36;14.10;;;6.60;;
33810;SDS011;20119;48.334;16.206;2024-02-21T05:14:04;11.95;;;5.90;;
33810;SDS011;20119;48.334;16.206;2024-02-21T05:16:31;15.80;;;7.05;;
33810;SDS011;20119;48.334;16.206;2024-02-21T05:18:59;15.82;;;6.53;;
33810;SDS011;20119;48.334;16.206;2024-02-21T05:21:26;15.65;;;6.97;;
33810;SDS011;20119;48.334;16.206;2024-02-21T05:23:54;15.35;;;6.60;;
33810;SDS011;20119;48.334;16.206;2024-02-21T05:26:21;13.30;;;6.45;;
33810;SDS011;20119;48.334;16.206;2024-02-21T05:28:49;12.93;;;5.82;;
33810;SDS011;20119;48.334;16.206;2024-02-21T05:31:17;13.30;;;6.03;;
33810;SDS011;20119;48.334;16.206;2024-02-21T05:33:44;14.88;;;5.75;;
33810;SDS011;20119;48.334;16.206;2024-02-21T05:38:47;14.65;;;6.03;;
33810;SDS011;20119;48.334;16.206;2024-02-21T05:41:15;13.38;;;5.95;;
33810;SDS011;20119;48.334;16.206;2024-02-21T05:43:42;13.63;;;5.55;;
33810;SDS011;20119;48.334;16.206;2024-02-21T05:46:09;11.15;;;5.47;;
33810;SDS011;20119;48.334;16.206;2024-02-21T05:53:48;11.57;;;4.88;;
33810;SDS011;20119;48.334;16.206;2024-02-21T05:58:52;11.27;;;4.90;;
33810;SDS011;20119;48.334;16.206;2024-02-21T06:01:19;9.20;;;4.60;;
33810;SDS011;20119;48.334;16.206;2024-02-21T06:06:22;14.13;;;5.25;;
33810;SDS011;20119;48.334;16.206;2024-02-21T06:08:50;11.60;;;5.18;;
33810;SDS011;20119;48.334;16.206;2024-02-21T06:13:54;11.75;;;5.00;;
33810;SDS011;20119;48.334;16.206;2024-02-21T06:21:32;11.68;;;4.65;;
33810;SDS011;20119;48.334;16.206;2024-02-21T06:23:59;10.52;;;4.72;;
33810;SDS011;20119;48.334;16.206;2024-02-21T06:26:26;12.90;;;4.90;;
33810;SDS011;20119;48.334;16.206;2024-02-21T06:28:54;8.90;;;4.78;;
33810;SDS011;20119;48.334;16.206;2024-02-21T06:33:57;12.90;;;4.63;;
33810;SDS011;20119;48.334;16.206;2024-02-21T06:36:24;14.38;;;4.75;;
33810;SDS011;20119;48.334;16.206;2024-02-21T06:38:51;12.20;;;5.30;;
33810;SDS011;20119;48.334;16.206;2024-02-21T06:41:19;18.20;;;5.40;;
33810;SDS011;20119;48.334;16.206;2024-02-21T06:43:46;13.32;;;5.18;;
33810;SDS011;20119;48.334;16.206;2024-02-21T06:46:23;11.40;;;4.97;;
33810;SDS011;20119;48.334;16.206;2024-02-21T06:48:51;12.88;;;4.82;;
33810;SDS011;20119;48.334;16.206;2024-02-21T06:51:19;11.13;;;4.45;;
33810;SDS011;20119;48.334;16.206;2024-02-21T06:53:46;12.32;;;4.22;;
33810;SDS011;20119;48.334;16.206;2024-02-21T06:56:13;10.32;;;4.40;;
33810;SDS011;20119;48.334;16.206;2024-02-21T06:58:40;10.07;;;4.22;;
33810;SDS011;20119;48.334;16.206;2024-02-21T07:01:07;9.63;;;4.53;;
33810;SDS011;20119;48.334;16.206;2024-02-21T07:03:36;9.35;;;4.05;;
33810;SDS011;20119;48.334;16.206;2024-02-21T07:06:04;10.55;;;4.03;;
33810;SDS011;20119;48.334;16.206;2024-02-21T07:08:31;10.05;;;4.18;;
33810;SDS011;20119;48.334;16.206;2024-02-21T07:10:58;11.65;;;4.80;;
33810;SDS011;20119;48.334;16.206;2024-02-21T07:13:25;12.02;;;6.35;;
33810;SDS011;20119;48.334;16.206;2024-02-21T07:15:52;12.02;;;5.03;;
33810;SDS011;20119;48.334;16.206;2024-02-21T07:18:19;9.93;;;4.57;;
33810;SDS011;20119;48.334;16.206;2024-02-21T07:20:47;15.65;;;5.53;;
33810;SDS011;20119;48.334;16.206;2024-02-21T07:28:25;13.65;;;4.28;;
33810;SDS011;20119;48.334;16.206;2024-02-21T07:33:28;7.43;;;4.25;;
33810;SDS011;20119;48.334;16.206;2024-02-21T07:38:32;11.70;;;4.72;;
33810;SDS011;20119;48.334;16.206;2024-02-21T07:40:59;11.25;;;4.47;;
33810;SDS011;20119;48.334;16.206;2024-02-21T07:43:26;13.13;;;4.28;;
33810;SDS011;20119;48.334;16.206;2024-02-21T07:53:41;10.93;;;3.60;;
33810;SDS011;20119;48.334;16.206;2024-02-21T07:56:10;9.50;;;3.83;;
33810;SDS011;20119;48.334;16.206;2024-02-21T07:58:37;7.72;;;3.63;;
33810;SDS011;20119;48.334;16.206;2024-02-21T08:01:04;5.07;;;3.13;;
33810;SDS011;20119;48.334;16.206;2024-02-21T08:03:31;7.03;;;3.25;;
33810;SDS011;20119;48.334;16.206;2024-02-21T08:08:42;8.88;;;2.95;;
33810;SDS011;20119;48.334;16.206;2024-02-21T08:11:09;8.32;;;3.40;;
33810;SDS011;20119;48.334;16.206;2024-02-21T08:13:36;6.93;;;2.78;;
33810;SDS011;20119;48.334;16.206;2024-02-21T08:16:04;7.47;;;2.92;;
33810;SDS011;20119;48.334;16.206;2024-02-21T08:18:31;8.90;;;3.20;;
33810;SDS011;20119;48.334;16.206;2024-02-21T08:21:01;7.32;;;2.88;;
33810;SDS011;20119;48.334;16.206;2024-02-21T08:23:29;6.57;;;2.55;;
33810;SDS011;20119;48.334;16.206;2024-02-21T08:28:33;6.38;;;2.50;;
33810;SDS011;20119;48.334;16.206;2024-02-21T08:33:35;5.32;;;2.58;;
33810;SDS011;20119;48.334;16.206;2024-02-21T08:36:02;5.57;;;2.50;;
33810;SDS011;20119;48.334;16.206;2024-02-21T08:38:30;8.98;;;2.72;;
33810;SDS011;20119;48.334;16.206;2024-02-21T08:40:58;6.15;;;2.50;;
33810;SDS011;20119;48.334;16.206;2024-02-21T08:46:02;6.03;;;2.42;;
33810;SDS011;20119;48.334;16.206;2024-02-21T08:48:29;8.73;;;2.70;;
33810;SDS011;20119;48.334;16.206;2024-02-21T08:50:57;8.00;;;2.72;;
33810;SDS011;20119;48.334;16.206;2024-02-21T08:53:24;8.32;;;2.33;;
33810;SDS011;20119;48.334;16.206;2024-02-21T08:55:51;7.22;;;2.03;;
33810;SDS011;20119;48.334;16.206;2024-02-21T08:58:18;6.10;;;2.30;;
33810;SDS011;20119;48.334;16.206;2024-02-21T09:00:48;5.65;;;2.08;;
33810;SDS011;20119;48.334;16.206;2024-02-21T09:03:17;6.22;;;2.50;;
33810;SDS011;20119;48.334;16.206;2024-02-21T09:08:21;7.25;;;2.40;;
33810;SDS011;20119;48.334;16.206;2024-02-21T09:15:52;5.72;;;2.20;;
33810;SDS011;20119;48.334;16.206;2024-02-21T09:18:21;5.75;;;2.15;;
33810;SDS011;20119;48.334;16.206;2024-02-21T09:23:23;7.55;;;2.38;;
33810;SDS011;20119;48.334;16.206;2024-02-21T09:25:51;7.20;;;2.40;;
33810;SDS011;20119;48.334;16.206;2024-02-21T09:36:05;6.35;;;2.55;;
33810;SDS011;20119;48.334;16.206;2024-02-21T09:38:32;5.70;;;2.47;;
33810;SDS011;20119;48.334;16.206;2024-02-21T09:43:34;6.55;;;2.25;;
33810;SDS011;20119;48.334;16.206;2024-02-21T09:46:04;7.47;;;2.45;;
33810;SDS011;20119;48.334;16.206;2024-02-21T09:48:39;8.13;;;2.42;;
33810;SDS011;20119;48.334;16.206;2024-02-21T09:51:18;6.63;;;2.30;;
33810;SDS011;20119;48.334;16.206;2024-02-21T09:53:46;7.22;;;2.70;;
33810;SDS011;20119;48.334;16.206;2024-02-21T09:56:15;9.35;;;2.78;;
33810;SDS011;20119;48.334;16.206;2024-02-21T09:58:42;7.20;;;2.33;;
33810;SDS011;20119;48.334;16.206;2024-02-21T10:01:09;7.93;;;2.38;;
33810;SDS011;20119;48.334;16.206;2024-02-21T10:08:52;5.88;;;2.20;;
33810;SDS011;20119;48.334;16.206;2024-02-21T10:11:23;5.80;;;1.98;;
33810;SDS011;20119;48.334;16.206;2024-02-21T10:16:17;5.32;;;2.30;;
33810;SDS011;20119;48.334;16.206;2024-02-21T10:18:44;7.55;;;2.67;;
33810;SDS011;20119;48.334;16.206;2024-02-21T10:21:11;6.55;;;2.30;;
33810;SDS011;20119;48.334;16.206;2024-02-21T10:26:12;8.38;;;2.10;;
33810;SDS011;20119;48.334;16.206;2024-02-21T10:28:40;7.82;;;2.70;;
33810;SDS011;20119;48.334;16.206;2024-02-21T10:31:10;6.30;;;2.03;;
33810;SDS011;20119;48.334;16.206;2024-02-21T10:38:48;7.68;;;2.38;;
33810;SDS011;20119;48.334;16.206;2024-02-21T10:41:17;5.45;;;2.20;;
33810;SDS011;20119;48.334;16.206;2024-02-21T10:46:22;8.32;;;2.63;;
33810;SDS011;20119;48.334;16.206;2024-02-21T10:48:54;5.82;;;1.80;;
33810;SDS011;20119;48.334;16.206;2024-02-21T10:51:29;5.88;;;2.08;;
33810;SDS011;20119;48.334;16.206;2024-02-21T10:59:12;6.28;;;2.00;;
33810;SDS011;20119;48.334;16.206;2024-02-21T11:01:40;8.05;;;2.40;;
33810;SDS011;20119;48.334;16.206;2024-02-21T11:04:07;5.63;;;2.10;;
33810;SDS011;20119;48.334;16.206;2024-02-21T11:06:36;6.30;;;2.13;;
33810;SDS011;20119;48.334;16.206;2024-02-21T11:09:12;8.63;;;2.05;;
33810;SDS011;20119;48.334;16.206;2024-02-21T11:11:40;9.57;;;2.25;;
33810;SDS011;20119;48.334;16.206;2024-02-21T11:16:44;5.30;;;2.05;;
33810;SDS011;20119;48.334;16.206;2024-02-21T11:19:19;7.65;;;1.88;;
33810;SDS011;20119;48.334;16.206;2024-02-21T11:21:46;5.30;;;2.38;;
33810;SDS011;20119;48.334;16.206;2024-02-21T11:24:14;8.07;;;2.10;;
33810;SDS011;20119;48.334;16.206;2024-02-21T11:29:28;6.13;;;2.20;;
33810;SDS011;20119;48.334;16.206;2024-02-21T11:31:58;6.18;;;2.20;;
33810;SDS011;20119;48.334;16.206;2024-02-21T11:34:28;7.07;;;2.13;;
33810;SDS011;20119;48.334;16.206;2024-02-21T11:36:55;7.28;;;2.35;;
33810;SDS011;20119;48.334;16.206;2024-02-21T11:39:23;7.80;;;2.25;;
33810;SDS011;20119;48.334;16.206;2024-02-21T11:42:01;11.55;;;2.53;;
33810;SDS011;20119;48.334;16.206;2024-02-21T11:44:29;6.63;;;2.15;;
33810;SDS011;20119;48.334;16.206;2024-02-21T11:46:56;9.52;;;2.30;;
33810;SDS011;20119;48.334;16.206;2024-02-21T11:49:25;7.85;;;2.58;;
33810;SDS011;20119;48.334;16.206;2024-02-21T11:52:01;8.07;;;2.20;;
33810;SDS011;20119;48.334;16.206;2024-02-21T11:54:30;6.30;;;1.95;;
33810;SDS011;20119;48.334;16.206;2024-02-21T11:56:57;5.80;;;2.25;;
33810;SDS011;20119;48.334;16.206;2024-02-21T12:07:06;6.85;;;1.95;;
33810;SDS011;20119;48.334;16.206;2024-02-21T12:09:34;6.80;;;2.10;;
33810;SDS011;20119;48.334;16.206;2024-02-21T12:12:01;7.13;;;1.90;;
33810;SDS011;20119;48.334;16.206;2024-02-21T12:14:30;7.30;;;2.40;;
33810;SDS011;20119;48.334;16.206;2024-02-21T12:16:58;8.40;;;2.25;;
33810;SDS011;20119;48.334;16.206;2024-02-21T12:19:28;7.57;;;2.42;;
33810;SDS011;20119;48.334;16.206;2024-02-21T12:21:56;5.00;;;2.00;;
33810;SDS011;20119;48.334;16.206;2024-02-21T12:24:27;6.60;;;1.98;;
33810;SDS011;20119;48.334;16.206;2024-02-21T12:26:55;6.03;;;2.00;;
33810;SDS011;20119;48.334;16.206;2024-02-21T12:29:24;5.85;;;2.10;;
33810;SDS011;20119;48.334;16.206;2024-02-21T12:31:51;6.40;;;2.17;;
33810;SDS011;20119;48.334;16.206;2024-02-21T12:34:19;5.47;;;2.15;;
33810;SDS011;20119;48.334;16.206;2024-02-21T12:36:47;5.30;;;1.83;;
33810;SDS011;20119;48.334;16.206;2024-02-21T12:41:51;5.78;;;2.22;;
33810;SDS011;20119;48.334;16.206;2024-02-21T12:44:18;5.97;;;2.10;;
33810;SDS011;20119;48.334;16.206;2024-02-21T12:46:45;8.00;;;2.40;;
33810;SDS011;20119;48.334;16.206;2024-02-21T12:49:16;5.88;;;2.00;;
33810;SDS011;20119;48.334;16.206;2024-02-21T12:51:44;6.13;;;1.92;;
33810;SDS011;20119;48.334;16.206;2024-02-21T12:54:12;5.25;;;2.08;;
33810;SDS011;20119;48.334;16.206;2024-02-21T12:56:39;7.70;;;2.22;;
33810;SDS011;20119;48.334;16.206;2024-02-21T12:59:08;4.43;;;2.10;;
33810;SDS011;20119;48.334;16.206;2024-02-21T13:01:35;8.68;;;2.30;;
33810;SDS011;20119;48.334;16.206;2024-02-21T13:04:02;6.80;;;2.30;;
33810;SDS011;20119;48.334;16.206;2024-02-21T13:06:30;6.20;;;1.98;;
33810;SDS011;20119;48.334;16.206;2024-02-21T13:08:57;5.20;;;1.80;;
33810;SDS011;20119;48.334;16.206;2024-02-21T13:11:24;8.80;;;1.92;;
33810;SDS011;20119;48.334;16.206;2024-02-21T13:13:56;6.53;;;2.13;;
33810;SDS011;20119;48.334;16.206;2024-02-21T13:16:24;6.95;;;1.80;;
33810;SDS011;20119;48.334;16.206;2024-02-21T13:18:52;5.50;;;1.75;;
33810;SDS011;20119;48.334;16.206;2024-02-21T13:21:19;6.88;;;1.90;;
33810;SDS011;20119;48.334;16.206;2024-02-21T13:23:46;6.18;;;2.00;;
33810;SDS011;20119;48.334;16.206;2024-02-21T13:26:13;5.18;;;1.95;;
33810;SDS011;20119;48.334;16.206;2024-02-21T13:28:41;5.07;;;1.75;;
33810;SDS011;20119;48.334;16.206;2024-02-21T13:31:09;6.15;;;1.60;;
33810;SDS011;20119;48.334;16.206;2024-02-21T13:33:38;4.50;;;1.70;;
33810;SDS011;20119;48.334;16.206;2024-02-21T13:36:05;5.38;;;1.80;;
33810;SDS011;20119;48.334;16.206;2024-02-21T13:38:33;7.30;;;1.88;;
33810;SDS011;20119;48.334;16.206;2024-02-21T13:41:00;5.05;;;1.67;;
33810;SDS011;20119;48.334;16.206;2024-02-21T13:43:27;4.75;;;1.92;;
33810;SDS011;20119;48.334;16.206;2024-02-21T13:45:56;7.15;;;1.77;;
33810;SDS011;20119;48.334;16.206;2024-02-21T13:48:24;6.78;;;1.90;;
33810;SDS011;20119;48.334;16.206;2024-02-21T13:50:53;5.47;;;1.63;;
33810;SDS011;20119;48.334;16.206;2024-02-21T13:53:20;4.18;;;1.85;;
33810;SDS011;20119;48.334;16.206;2024-02-21T13:55:48;6.47;;;2.05;;
33810;SDS011;20119;48.334;16.206;2024-02-21T13:58:15;10.95;;;2.50;;
33810;SDS011;20119;48.334;16.206;2024-02-21T14:00:43;7.47;;;2.10;;
33810;SDS011;20119;48.334;16.206;2024-02-21T14:03:10;8.07;;;2.10;;
33810;SDS011;20119;48.334;16.206;2024-02-21T14:05:37;5.32;;;2.08;;
33810;SDS011;20119;48.334;16.206;2024-02-21T14:08:06;7.45;;;1.88;;
33810;SDS011;20119;48.334;16.206;2024-02-21T14:10:33;4.53;;;1.70;;
33810;SDS011;20119;48.334;16.206;2024-02-21T14:13:02;5.43;;;1.95;;
33810;SDS011;20119;48.334;16.206;2024-02-21T14:15:29;5.47;;;1.70;;
33810;SDS011;20119;48.334;16.206;2024-02-21T14:17:56;5.00;;;1.95;;
33810;SDS011;20119;48.334;16.206;2024-02-21T14:20:23;4.90;;;1.83;;
33810;SDS011;20119;48.334;16.206;2024-02-21T14:22:50;5.15;;;1.80;;
33810;SDS011;20119;48.334;16.206;2024-02-21T14:25:19;5.32;;;1.52;;
33810;SDS011;20119;48.334;16.206;2024-02-21T14:27:46;6.47;;;1.73;;
33810;SDS011;20119;48.334;16.206;2024-02-21T14:30:13;6.90;;;1.67;;
33810;SDS011;20119;48.334;16.206;2024-02-21T14:32:41;4.95;;;1.70;;
33810;SDS011;20119;48.334;16.206;2024-02-21T14:35:10;6.13;;;2.05;;
33810;SDS011;20119;48.334;16.206;2024-02-21T14:37:37;7.20;;;2.15;;
33810;SDS011;20119;48.334;16.206;2024-02-21T14:40:05;5.82;;;2.10;;
33810;SDS011;20119;48.334;16.206;2024-02-21T14:42:34;7.90;;;2.45;;
33810;SDS011;20119;48.334;16.206;2024-02-21T14:45:01;6.38;;;2.05;;
33810;SDS011;20119;48.334;16.206;2024-02-21T14:47:29;7.50;;;2.00;;
33810;SDS011;20119;48.334;16.206;2024-02-21T14:49:57;8.90;;;2.40;;
33810;SDS011;20119;48.334;16.206;2024-02-21T14:52:24;7.18;;;1.80;;
33810;SDS011;20119;48.334;16.206;2024-02-21T14:54:52;7.28;;;1.90;;
33810;SDS011;20119;48.334;16.206;2024-02-21T14:57:19;8.10;;;1.90;;
33810;SDS011;20119;48.334;16.206;2024-02-21T14:59:48;4.22;;;1.67;;
33810;SDS011;20119;48.334;16.206;2024-02-21T15:02:21;5.32;;;1.98;;
33810;SDS011;20119;48.334;16.206;2024-02-21T15:09:56;5.13;;;1.98;;
33810;SDS011;20119;48.334;16.206;2024-02-21T15:12:23;6.97;;;1.63;;
33810;SDS011;20119;48.334;16.206;2024-02-21T15:14:51;6.00;;;1.80;;
33810;SDS011;20119;48.334;16.206;2024-02-21T15:17:19;6.70;;;1.98;;
33810;SDS011;20119;48.334;16.206;2024-02-21T15:19:46;4.85;;;1.98;;
33810;SDS011;20119;48.334;16.206;2024-02-21T15:22:13;4.47;;;1.95;;
33810;SDS011;20119;48.334;16.206;2024-02-21T15:24:41;5.68;;;1.92;;
33810;SDS011;20119;48.334;16.206;2024-02-21T15:27:08;6.75;;;2.28;;
33810;SDS011;20119;48.334;16.206;2024-02-21T15:29:35;4.63;;;2.08;;
33810;SDS011;20119;48.334;16.206;2024-02-21T15:32:04;6.72;;;2.20;;
33810;SDS011;20119;48.334;16.206;2024-02-21T15:37:07;5.38;;;2.10;;
33810;SDS011;20119;48.334;16.206;2024-02-21T15:39:35;5.22;;;2.00;;
33810;SDS011;20119;48.334;16.206;2024-02-21T15:42:03;7.00;;;2.15;;
33810;SDS011;20119;48.334;16.206;2024-02-21T15:44:30;7.10;;;2.30;;
33810;SDS011;20119;48.334;16.206;2024-02-21T15:46:57;14.57;;;2.50;;
33810;SDS011;20119;48.334;16.206;2024-02-21T15:49:25;12.35;;;2.67;;
33810;SDS011;20119;48.334;16.206;2024-02-21T15:51:52;8.00;;;2.75;;
33810;SDS011;20119;48.334;16.206;2024-02-21T15:56:56;5.18;;;2.63;;
33810;SDS011;20119;48.334;16.206;2024-02-21T15:59:23;11.88;;;3.42;;
33810;SDS011;20119;48.334;16.206;2024-02-21T16:04:26;9.65;;;3.30;;
33810;SDS011;20119;48.334;16.206;2024-02-21T16:06:55;9.98;;;3.25;;
33810;SDS011;20119;48.334;16.206;2024-02-21T16:09:25;14.03;;;3.53;;
33810;SDS011;20119;48.334;16.206;2024-02-21T16:11:53;8.23;;;3.17;;
33810;SDS011;20119;48.334;16.206;2024-02-21T16:24:43;12.43;;;3.50;;
33810;SDS011;20119;48.334;16.206;2024-02-21T16:27:11;8.75;;;2.88;;
33810;SDS011;20119;48.334;16.206;2024-02-21T16:29:38;7.13;;;2.95;;
33810;SDS011;20119;48.334;16.206;2024-02-21T16:34:40;26.42;;;11.05;;
33810;SDS011;20119;48.334;16.206;2024-02-21T16:37:07;36.25;;;16.30;;
33810;SDS011;20119;48.334;16.206;2024-02-21T16:39:35;29.85;;;14.02;;
33810;SDS011;20119;48.334;16.206;2024-02-21T16:44:38;35.47;;;16.30;;
33810;SDS011;20119;48.334;16.206;2024-02-21T16:47:05;26.95;;;12.85;;
33810;SDS011;20119;48.334;16.206;2024-02-21T16:49:33;26.08;;;13.02;;
33810;SDS011;20119;48.334;16.206;2024-02-21T16:54:36;27.15;;;12.65;;
33810;SDS011;20119;48.334;16.206;2024-02-21T16:57:03;23.30;;;10.32;;
33810;SDS011;20119;48.334;16.206;2024-02-21T16:59:30;30.58;;;9.98;;
33810;SDS011;20119;48.334;16.206;2024-02-21T17:01:59;21.52;;;8.60;;
33810;SDS011;20119;48.334;16.206;2024-02-21T17:04:26;22.45;;;11.15;;
33810;SDS011;20119;48.334;16.206;2024-02-21T17:06:54;25.15;;;11.23;;
33810;SDS011;20119;48.334;16.206;2024-02-21T17:09:21;19.83;;;9.27;;
33810;SDS011;20119;48.334;16.206;2024-02-21T17:11:50;19.50;;;10.07;;
33810;SDS011;20119;48.334;16.206;2024-02-21T17:14:18;12.15;;;5.50;;
33810;SDS011;20119;48.334;16.206;2024-02-21T17:16:47;15.35;;;5.25;;
33810;SDS011;20119;48.334;16.206;2024-02-21T17:19:15;13.10;;;6.18;;
33810;SDS011;20119;48.334;16.206;2024-02-21T17:21:42;10.40;;;3.88;;
33810;SDS011;20119;48.334;16.206;2024-02-21T17:24:10;7.00;;;2.70;;
33810;SDS011;20119;48.334;16.206;2024-02-21T17:26:37;7.00;;;2.45;;
33810;SDS011;20119;48.334;16.206;2024-02-21T17:29:04;6.50;;;2.42;;
33810;SDS011;20119;48.334;16.206;2024-02-21T17:31:31;6.50;;;2.67;;
33810;SDS011;20119;48.334;16.206;2024-02-21T17:33:58;6.45;;;2.33;;
33810;SDS011;20119;48.334;16.206;2024-02-21T17:36:27;6.50;;;2.47;;
33810;SDS011;20119;48.334;16.206;2024-02-21T17:38:54;8.48;;;2.70;;
33810;SDS011;20119;48.334;16.206;2024-02-21T17:41:21;6.68;;;2.20;;
33810;SDS011;20119;48.334;16.206;2024-02-21T17:43:48;8.20;;;2.75;;
33810;SDS011;20119;48.334;16.206;2024-02-21T17:46:16;5.95;;;2.30;;
33810;SDS011;20119;48.334;16.206;2024-02-21T17:48:44;5.82;;;2.28;;
33810;SDS011;20119;48.334;16.206;2024-02-21T17:51:11;11.30;;;2.63;;
33810;SDS011;20119;48.334;16.206;2024-02-21T17:53:40;7.07;;;2.47;;
33810;SDS011;20119;48.334;16.206;2024-02-21T17:56:07;7.88;;;2.40;;
33810;SDS011;20119;48.334;16.206;2024-02-21T17:58:34;9.13;;;2.80;;
33810;SDS011;20119;48.334;16.206;2024-02-21T18:01:01;10.20;;;3.08;;
33810;SDS011;20119;48.334;16.206;2024-02-21T18:06:03;7.68;;;2.20;;
33810;SDS011;20119;48.334;16.206;2024-02-21T18:08:31;6.68;;;2.47;;
33810;SDS011;20119;48.334;16.206;2024-02-21T18:10:59;9.65;;;2.60;;
33810;SDS011;20119;48.334;16.206;2024-02-21T18:13:27;7.93;;;2.22;;
33810;SDS011;20119;48.334;16.206;2024-02-21T18:15:58;7.13;;;2.67;;
33810;SDS011;20119;48.334;16.206;2024-02-21T18:18:28;6.25;;;2.50;;